Time;durP1;ratioP1;P1;durP2;ratioP2;P2;SDS_P1;SDS_P2;PMS_P1;PMS_P2;Temp;Humidity;BMP_temperature;BMP_pressure;BME280_temperature;BME280_humidity;BME280_pressure;Samples;Min_cycle;Max_cycle;Signal;HPM_P1;HPM_P2
2023/01/08 00:01:44;;;;;;;0.00;0.00;;;4.00;99.90;;;;;;10462154;28;20037;-78
2023/01/08 00:06:45;;;;;;;0.13;0.13;;;4.10;99.90;;;;;;10459758;28;20496;-78
2023/01/08 00:11:48;;;;;;;0.33;0.33;;;4.10;99.90;;;;;;10463236;28;20498;-78
2023/01/08 00:16:50;;;;;;;0.93;0.93;;;4.10;99.90;;;;;;10456897;28;20132;-79
2023/01/08 00:21:51;;;;;;;0.37;0.37;;;4.10;99.90;;;;;;10457388;28;20116;-78
2023/01/08 00:26:51;;;;;;;0.30;0.30;;;4.10;99.90;;;;;;10457675;28;20039;-78
2023/01/08 00:31:52;;;;;;;0.73;0.70;;;4.20;99.90;;;;;;10460189;28;20041;-78
2023/01/08 00:36:52;;;;;;;0.00;0.00;;;4.20;99.90;;;;;;10467641;28;20044;-79
2023/01/08 00:41:53;;;;;;;0.00;0.00;;;4.20;99.90;;;;;;10452923;28;20032;-79
2023/01/08 00:46:53;;;;;;;0.33;0.33;;;4.20;99.90;;;;;;10469752;28;20027;-78
2023/01/08 00:51:54;;;;;;;0.00;0.00;;;4.20;99.90;;;;;;10469199;28;20057;-79
2023/01/08 00:56:55;;;;;;;3.00;1.80;;;4.20;99.90;;;;;;10458533;28;20110;-78
2023/01/08 01:01:55;;;;;;;0.20;0.20;;;4.20;99.90;;;;;;10453908;28;20041;-79
2023/01/08 01:06:56;;;;;;;0.00;0.00;;;4.20;99.90;;;;;;10459860;28;20027;-79
2023/01/08 01:11:56;;;;;;;0.00;0.00;;;4.20;99.90;;;;;;10456106;28;20501;-78
2023/01/08 01:16:57;;;;;;;3.53;2.60;;;4.20;99.90;;;;;;10463777;28;20708;-79
2023/01/08 01:21:58;;;;;;;9.33;1.20;;;4.30;99.90;;;;;;10459652;28;20111;-80
2023/01/08 01:26:59;;;;;;;1.03;1.03;;;4.30;99.90;;;;;;10456664;28;20032;-79
2023/01/08 01:31:59;;;;;;;3.20;2.90;;;4.20;99.90;;;;;;10457922;28;20021;-79
2023/01/08 01:37:00;;;;;;;1.70;1.60;;;4.10;99.90;;;;;;10464618;28;20043;-78
2023/01/08 01:42:00;;;;;;;0.00;0.00;;;3.80;99.90;;;;;;10451840;28;20465;-78
2023/01/08 01:47:24;;;;;;;0.00;0.00;;;3.60;99.90;;;;;;10460854;28;20474;-78
2023/01/08 01:52:29;;;;;;;1.00;0.97;;;3.30;99.90;;;;;;10456285;28;20039;-79
2023/01/08 01:57:31;;;;;;;1.33;1.27;;;3.10;99.90;;;;;;10454868;28;20028;-79
2023/01/08 02:02:32;;;;;;;1.00;0.93;;;2.90;99.90;;;;;;10451838;28;20472;-78
2023/01/08 02:07:39;;;;;;;0.30;0.30;;;2.70;99.90;;;;;;10459815;28;20029;-79
2023/01/08 02:13:12;;;;;;;0.00;0.00;;;2.70;99.90;;;;;;10453476;28;20294;-78
2023/01/08 02:18:19;;;;;;;0.87;0.87;;;2.60;99.90;;;;;;10448119;28;20045;-78
2023/01/08 02:23:22;;;;;;;1.00;0.97;;;2.50;99.90;;;;;;10450986;28;20028;-79
2023/01/08 02:28:25;;;;;;;0.00;0.00;;;2.40;99.90;;;;;;10449937;28;20043;-78
2023/01/08 02:33:28;;;;;;;0.00;0.00;;;2.40;99.90;;;;;;10451593;28;20406;-78
2023/01/08 02:38:30;;;;;;;0.00;0.00;;;2.30;99.90;;;;;;10458828;28;20044;-78
2023/01/08 02:43:44;;;;;;;0.50;0.50;;;2.30;99.90;;;;;;10452968;28;20027;-79
2023/01/08 02:48:48;;;;;;;0.90;0.90;;;2.40;99.90;;;;;;10456294;28;20532;-79
2023/01/08 02:53:53;;;;;;;0.30;0.30;;;2.30;99.90;;;;;;10454779;28;20649;-78
2023/01/08 02:58:56;;;;;;;1.10;0.87;;;2.20;99.90;;;;;;10461289;28;20047;-78
2023/01/08 03:04:06;;;;;;;0.10;0.10;;;2.20;99.90;;;;;;10455593;28;20033;-79
2023/01/08 03:09:07;;;;;;;0.00;0.00;;;2.10;99.90;;;;;;10451923;28;20150;-79
2023/01/08 03:14:29;;;;;;;0.00;0.00;;;2.10;99.90;;;;;;10454680;28;20633;-78
2023/01/08 03:19:40;;;;;;;0.30;0.30;;;2.00;99.90;;;;;;10456015;28;20063;-79
2023/01/08 03:24:43;;;;;;;3.30;3.00;;;2.00;99.90;;;;;;10455873;28;20500;-80
2023/01/08 03:29:47;;;;;;;0.10;0.10;;;1.90;99.90;;;;;;10467116;28;20397;-78
2023/01/08 03:34:50;;;;;;;0.40;0.40;;;1.90;99.90;;;;;;10466916;28;20540;-78
2023/01/08 03:40:16;;;;;;;0.37;0.37;;;1.90;99.90;;;;;;10477229;22;20040;-79
2023/01/08 03:45:17;;;;;;;1.25;1.15;;;1.90;99.90;;;;;;10457944;28;20669;-78
2023/01/08 03:50:21;;;;;;;0.00;0.00;;;1.80;99.90;;;;;;10461820;28;20115;-78
2023/01/08 03:55:22;;;;;;;1.27;1.27;;;1.70;99.90;;;;;;10475031;22;20067;-78
2023/01/08 04:00:23;;;;;;;0.00;0.00;;;1.70;99.90;;;;;;10462626;28;20032;-80
2023/01/08 04:05:23;;;;;;;0.37;0.37;;;1.70;99.90;;;;;;10458165;28;20102;-80
2023/01/08 04:10:24;;;;;;;0.00;0.00;;;1.60;99.90;;;;;;10461362;28;20033;-80
2023/01/08 04:15:25;;;;;;;0.00;0.00;;;1.70;99.90;;;;;;10447672;28;20033;-80
2023/01/08 04:20:25;;;;;;;0.23;0.23;;;1.60;99.90;;;;;;10443294;28;20115;-79
2023/01/08 04:25:26;;;;;;;0.00;0.00;;;1.60;99.90;;;;;;10441835;28;20029;-80
2023/01/08 04:30:26;;;;;;;2.23;1.10;;;1.60;99.90;;;;;;10440081;28;20033;-79
2023/01/08 04:35:27;;;;;;;0.00;0.00;;;1.60;99.90;;;;;;10443038;28;20044;-80
2023/01/08 04:40:28;;;;;;;0.00;0.00;;;1.50;99.90;;;;;;10442503;28;20028;-79
2023/01/08 04:45:28;;;;;;;2.30;2.13;;;1.50;99.90;;;;;;10443502;28;20107;-79
2023/01/08 04:50:29;;;;;;;0.00;0.00;;;1.40;99.90;;;;;;10441901;28;20041;-80
2023/01/08 04:55:29;;;;;;;0.87;0.87;;;1.40;99.90;;;;;;10439095;28;20413;-80
2023/01/08 05:00:30;;;;;;;0.67;0.67;;;1.40;99.90;;;;;;10443262;28;20028;-81
2023/01/08 05:05:33;;;;;;;0.70;0.70;;;1.40;99.90;;;;;;10430505;28;20033;-79
2023/01/08 05:10:33;;;;;;;0.40;0.40;;;1.40;99.90;;;;;;10444568;28;20076;-80
2023/01/08 05:15:34;;;;;;;0.50;0.50;;;1.30;99.90;;;;;;10444013;28;20545;-81
2023/01/08 05:20:35;;;;;;;0.40;0.40;;;1.20;99.90;;;;;;10443900;28;20031;-81
2023/01/08 05:25:35;;;;;;;0.00;0.00;;;1.20;99.90;;;;;;10443448;28;20060;-82
2023/01/08 05:30:36;;;;;;;0.00;0.00;;;1.20;99.90;;;;;;10442800;28;20036;-79
2023/01/08 05:35:38;;;;;;;2.00;0.63;;;1.20;99.90;;;;;;10441902;28;20208;-79
2023/01/08 05:40:39;;;;;;;0.00;0.00;;;1.10;99.90;;;;;;10441168;28;20071;-80
2023/01/08 05:45:39;;;;;;;0.07;0.07;;;1.20;99.90;;;;;;10440387;28;20152;-83
2023/01/08 05:50:40;;;;;;;0.57;0.57;;;1.30;99.90;;;;;;10443041;28;20036;-81
2023/01/08 05:55:40;;;;;;;0.00;0.00;;;1.20;99.90;;;;;;10442933;28;20067;-79
2023/01/08 06:00:41;;;;;;;1.20;1.20;;;1.20;99.90;;;;;;10442171;28;20032;-81
2023/01/08 06:05:41;;;;;;;0.27;0.27;;;1.10;99.90;;;;;;10442625;28;20037;-79
2023/01/08 06:10:42;;;;;;;2.10;1.57;;;1.10;99.90;;;;;;10442790;28;20029;-81
2023/01/08 06:15:42;;;;;;;0.87;0.87;;;1.10;99.90;;;;;;10442613;28;20037;-81
2023/01/08 06:20:43;;;;;;;0.00;0.00;;;1.10;99.90;;;;;;10442599;28;20416;-80
2023/01/08 06:25:43;;;;;;;0.00;0.00;;;1.10;99.90;;;;;;10441895;28;20040;-80
2023/01/08 06:30:44;;;;;;;0.67;0.67;;;1.00;99.90;;;;;;10441927;28;20476;-82
2023/01/08 06:35:45;;;;;;;0.00;0.00;;;1.00;99.90;;;;;;10441766;28;20051;-81
2023/01/08 06:40:46;;;;;;;0.00;0.00;;;1.10;99.90;;;;;;10440111;28;20029;-81
2023/01/08 06:45:57;;;;;;;0.37;0.37;;;1.20;99.90;;;;;;10429087;28;20029;-80
2023/01/08 06:51:02;;;;;;;0.47;0.47;;;1.20;99.90;;;;;;10441043;28;20043;-80
2023/01/08 06:56:03;;;;;;;1.03;0.97;;;1.20;99.90;;;;;;10439589;28;20057;-79
2023/01/08 07:01:04;;;;;;;0.23;0.23;;;1.10;99.90;;;;;;10447268;28;20029;-78
2023/01/08 07:06:05;;;;;;;0.77;0.53;;;1.10;99.90;;;;;;10448938;28;20556;-78
2023/01/08 07:11:06;;;;;;;3.60;3.40;;;1.10;99.90;;;;;;10448859;28;20029;-81
2023/01/08 07:16:08;;;;;;;4.57;4.13;;;1.20;99.90;;;;;;10449365;28;20049;-83
2023/01/08 07:21:09;;;;;;;11.33;2.77;;;1.20;99.90;;;;;;10448184;28;20032;-80
2023/01/08 07:26:09;;;;;;;5.50;4.27;;;1.30;99.90;;;;;;10448926;28;20443;-78
2023/01/08 07:31:10;;;;;;;0.63;0.63;;;1.40;99.90;;;;;;10449169;28;20025;-80
2023/01/08 07:36:10;;;;;;;2.77;2.57;;;1.50;99.90;;;;;;10447858;28;20033;-81
2023/01/08 07:41:12;;;;;;;3.40;3.20;;;1.60;99.90;;;;;;10446871;28;20095;-79
2023/01/08 07:46:12;;;;;;;1.33;1.23;;;1.70;99.90;;;;;;10438713;28;20040;-79
2023/01/08 07:51:13;;;;;;;0.40;0.40;;;1.80;99.90;;;;;;10439428;28;20484;-79
2023/01/08 07:56:14;;;;;;;0.00;0.00;;;2.10;99.90;;;;;;10447350;28;20609;-79
2023/01/08 08:01:14;;;;;;;0.50;0.50;;;2.40;99.90;;;;;;10447171;28;20025;-79
2023/01/08 08:06:15;;;;;;;0.23;0.23;;;2.70;99.90;;;;;;10446959;28;20025;-79
2023/01/08 08:11:16;;;;;;;1.73;1.60;;;2.90;99.90;;;;;;10447667;28;20033;-79
2023/01/08 08:16:16;;;;;;;1.10;1.10;;;3.10;99.90;;;;;;10446961;28;20029;-79
2023/01/08 08:21:16;;;;;;;3.70;3.50;;;3.40;99.90;;;;;;10446337;28;20116;-81
2023/01/08 08:26:17;;;;;;;4.07;2.07;;;3.50;99.90;;;;;;10447091;28;20035;-82
2023/01/08 08:31:18;;;;;;;3.00;2.80;;;3.60;99.90;;;;;;10446406;28;20029;-80
2023/01/08 08:36:18;;;;;;;3.70;1.37;;;3.60;99.90;;;;;;10446137;28;20044;-81
2023/01/08 08:41:19;;;;;;;0.10;0.10;;;3.60;99.90;;;;;;10446003;28;20032;-80
2023/01/08 08:46:19;;;;;;;1.67;1.57;;;3.50;99.90;;;;;;10445658;28;20021;-79
2023/01/08 08:51:20;;;;;;;0.20;0.20;;;3.50;99.90;;;;;;10446053;28;20025;-80
2023/01/08 08:56:20;;;;;;;0.63;0.63;;;3.40;99.90;;;;;;10445520;28;20061;-80
2023/01/08 09:01:21;;;;;;;0.93;0.93;;;3.40;99.90;;;;;;10444862;28;20791;-79
2023/01/08 09:06:23;;;;;;;1.37;1.27;;;3.50;99.90;;;;;;10444976;28;20029;-80
2023/01/08 09:11:24;;;;;;;0.90;0.90;;;3.50;99.90;;;;;;10444557;28;20071;-82
2023/01/08 09:16:25;;;;;;;0.87;0.83;;;3.50;99.90;;;;;;10444731;28;20123;-81
2023/01/08 09:21:25;;;;;;;0.17;0.17;;;3.60;99.90;;;;;;10443255;28;20759;-79
2023/01/08 09:26:27;;;;;;;0.20;0.20;;;3.80;99.90;;;;;;10444393;28;20029;-82
2023/01/08 09:31:28;;;;;;;0.10;0.10;;;4.00;99.90;;;;;;10444073;28;20167;-79
2023/01/08 09:36:28;;;;;;;0.63;0.63;;;4.30;99.90;;;;;;10444019;28;20037;-79
2023/01/08 09:41:37;;;;;;;0.77;0.77;;;4.60;99.90;;;;;;10443784;28;20181;-82
2023/01/08 09:46:37;;;;;;;2.67;2.43;;;4.60;99.90;;;;;;10443760;28;20032;-81
2023/01/08 09:51:38;;;;;;;2.13;1.27;;;4.70;99.90;;;;;;10443536;28;20025;-79
2023/01/08 09:56:38;;;;;;;1.13;1.13;;;4.90;99.90;;;;;;10443489;28;20095;-79
2023/01/08 10:01:40;;;;;;;3.77;3.53;;;5.10;99.90;;;;;;10442971;28;20456;-80
2023/01/08 10:06:51;;;;;;;5.50;4.13;;;5.20;99.90;;;;;;10442494;28;20031;-81
2023/01/08 10:11:54;;;;;;;3.13;1.97;;;5.40;99.90;;;;;;10442428;28;20083;-79
2023/01/08 10:17:02;;;;;;;1.50;1.40;;;5.80;99.90;;;;;;10440912;28;20476;-79
2023/01/08 10:22:08;;;;;;;3.23;1.57;;;6.10;99.90;;;;;;10438731;28;20037;-80
2023/01/08 10:27:15;;;;;;;0.83;0.83;;;6.60;99.90;;;;;;10442124;28;20040;-79
2023/01/08 10:32:28;;;;;;;3.23;3.03;;;6.80;99.90;;;;;;10439044;28;20044;-80
2023/01/08 10:37:45;;;;;;;3.70;3.40;;;7.10;99.90;;;;;;10440519;28;20124;-79
2023/01/08 10:42:46;;;;;;;0.83;0.80;;;7.10;99.90;;;;;;10441330;28;20052;-77
2023/01/08 10:47:49;;;;;;;0.30;0.30;;;7.10;99.90;;;;;;10440999;28;20158;-78
2023/01/08 10:52:55;;;;;;;0.00;0.00;;;7.00;99.90;;;;;;10440027;28;20376;-76
2023/01/08 10:58:01;;;;;;;0.17;0.17;;;7.00;99.90;;;;;;10442727;28;20048;-76
2023/01/08 11:03:08;;;;;;;0.10;0.10;;;7.10;99.90;;;;;;10430384;28;20041;-76
2023/01/08 11:08:18;;;;;;;0.33;0.33;;;7.10;99.90;;;;;;10431799;28;20114;-77
2023/01/08 11:13:19;;;;;;;1.37;0.70;;;7.10;99.90;;;;;;10443656;28;20523;-76
2023/01/08 11:18:24;;;;;;;0.83;0.83;;;7.00;99.90;;;;;;10439381;28;20049;-75
2023/01/08 11:23:26;;;;;;;1.83;1.73;;;7.00;99.90;;;;;;10432806;28;20037;-76
2023/01/08 11:28:37;;;;;;;1.97;1.87;;;6.90;99.90;;;;;;10437011;28;20041;-78
2023/01/08 11:33:39;;;;;;;1.77;1.33;;;6.90;99.90;;;;;;10422664;28;20033;-78
2023/01/08 11:38:40;;;;;;;0.90;0.87;;;6.90;99.90;;;;;;10435258;28;20497;-79
2023/01/08 11:44:06;;;;;;;10.40;3.40;;;6.90;99.90;;;;;;10436534;28;20024;-79
2023/01/08 11:49:26;;;;;;;;;;;7.10;99.90;;;;;;10441964;28;20596;-80
2023/01/08 11:54:45;;;;;;;0.93;0.93;;;7.30;99.90;;;;;;10442363;28;20011;-77
2023/01/08 12:00:00;;;;;;;2.03;1.83;;;7.50;99.90;;;;;;10441710;28;20065;-76
2023/01/08 12:05:27;;;;;;;1.30;1.30;;;7.60;99.90;;;;;;10443001;28;20132;-77
2023/01/08 12:10:42;;;;;;;3.37;2.37;;;7.70;99.90;;;;;;10433985;28;20102;-77
2023/01/08 12:15:55;;;;;;;0.20;0.20;;;7.80;99.90;;;;;;10445402;28;20052;-78
2023/01/08 12:21:07;;;;;;;0.73;0.73;;;7.90;99.90;;;;;;10441666;28;20077;-81
2023/01/08 12:26:45;;;;;;;0.00;0.00;;;7.90;99.90;;;;;;10440834;28;20056;-77
2023/01/08 12:32:01;;;;;;;1.13;1.13;;;7.90;99.90;;;;;;10438388;28;20033;-77
2023/01/08 12:37:13;;;;;;;0.15;0.15;;;8.00;99.90;;;;;;10445925;28;20041;-77
2023/01/08 12:42:23;;;;;;;0.97;0.83;;;8.10;99.90;;;;;;10445495;28;20041;-76
2023/01/08 12:47:28;;;;;;;0.40;0.40;;;8.00;99.90;;;;;;10444551;28;20025;-77
2023/01/08 12:52:41;;;;;;;0.85;0.85;;;8.00;99.90;;;;;;10445061;28;20032;-77
2023/01/08 12:57:56;;;;;;;1.60;1.50;;;8.00;99.90;;;;;;10444402;28;20048;-77
2023/01/08 13:03:00;;;;;;;0.32;0.32;;;7.90;99.90;;;;;;10443762;28;20061;-77
2023/01/08 13:08:03;;;;;;;0.00;0.00;;;7.90;99.90;;;;;;10444837;28;20021;-79
2023/01/08 13:13:07;;;;;;;0.13;0.13;;;7.80;99.90;;;;;;10440981;28;20029;-77
2023/01/08 13:18:17;;;;;;;2.23;1.23;;;7.70;99.90;;;;;;10441711;28;20443;-76
2023/01/08 13:23:24;;;;;;;0.00;0.00;;;7.60;99.90;;;;;;10443976;28;20056;-77
2023/01/08 13:28:28;;;;;;;0.00;0.00;;;7.60;99.90;;;;;;10442758;28;20033;-79
2023/01/08 13:33:37;;;;;;;1.53;1.50;;;7.60;99.90;;;;;;10442007;28;20055;-78
2023/01/08 13:38:38;;;;;;;0.40;0.40;;;7.60;99.90;;;;;;10443798;28;20040;-77
2023/01/08 13:43:40;;;;;;;0.40;0.40;;;7.60;99.90;;;;;;10443171;28;20029;-80
2023/01/08 13:48:57;;;;;;;0.00;0.00;;;7.50;99.90;;;;;;10442959;28;20045;-80
2023/01/08 13:54:13;;;;;;;0.00;0.00;;;7.40;99.90;;;;;;10443072;28;20148;-78
2023/01/08 13:59:34;;;;;;;0.00;0.00;;;7.20;99.90;;;;;;10443542;28;20029;-77
2023/01/08 14:04:34;;;;;;;5.37;4.87;;;7.00;99.90;;;;;;10438901;28;20051;-80
2023/01/08 14:09:35;;;;;;;2.23;2.03;;;6.80;99.90;;;;;;10439750;28;20505;-78
2023/01/08 14:14:37;;;;;;;6.40;5.90;;;6.50;99.90;;;;;;10441496;28;20118;-81
2023/01/08 14:19:39;;;;;;;5.20;4.70;;;6.20;99.90;;;;;;10440921;28;20040;-80
2023/01/08 14:24:43;;;;;;;9.17;3.00;;;6.00;99.90;;;;;;10441524;28;20036;-80
2023/01/08 14:29:44;;;;;;;8.50;6.57;;;5.70;99.90;;;;;;10441082;28;20082;-79
2023/01/08 14:34:46;;;;;;;5.27;4.87;;;5.50;99.90;;;;;;10440764;28;20051;-82
2023/01/08 14:39:50;;;;;;;2.87;2.73;;;5.30;99.90;;;;;;10441091;28;20040;-81
2023/01/08 14:45:00;;;;;;;3.63;3.33;;;5.00;99.90;;;;;;10440796;28;20031;-80
2023/01/08 14:50:01;;;;;;;1.20;1.20;;;4.90;99.90;;;;;;10438473;28;20153;-80
2023/01/08 14:55:02;;;;;;;3.57;2.47;;;4.80;99.90;;;;;;10427580;28;20057;-80
2023/01/08 15:00:04;;;;;;;2.00;1.70;;;4.80;99.90;;;;;;10439998;28;20036;-82
2023/01/08 15:05:17;;;;;;;0.50;0.40;;;4.60;99.90;;;;;;10439789;28;20104;-80
2023/01/08 15:10:37;;;;;;;0.30;0.30;;;4.50;99.90;;;;;;10440252;28;20081;-80
2023/01/08 15:16:11;;;;;;;0.47;0.47;;;4.40;99.90;;;;;;10438375;28;20037;-77
2023/01/08 15:21:20;;;;;;;1.83;1.73;;;4.20;99.90;;;;;;10437299;28;20099;-78
2023/01/08 15:26:22;;;;;;;5.30;1.47;;;4.20;99.90;;;;;;10447960;28;20040;-78
2023/01/08 15:31:27;;;;;;;3.70;2.70;;;4.10;99.90;;;;;;10444958;28;20037;-78
2023/01/08 15:36:28;;;;;;;0.93;0.93;;;3.90;99.90;;;;;;10446265;28;20049;-78
2023/01/08 15:46:55;;;;;;;1.23;1.13;;;3.80;99.90;;;;;;10446827;28;20048;-78
2023/01/08 15:51:55;;;;;;;0.33;0.33;;;3.70;99.90;;;;;;10446205;28;20040;-78
2023/01/08 15:56:56;;;;;;;1.17;1.17;;;3.70;99.90;;;;;;10446733;28;20063;-77
2023/01/08 16:01:57;;;;;;;0.40;0.40;;;3.70;99.90;;;;;;10443889;28;20060;-77
2023/01/08 16:06:57;;;;;;;1.40;1.33;;;3.70;99.90;;;;;;10444607;28;20043;-77
2023/01/08 16:11:58;;;;;;;1.80;1.20;;;3.60;99.90;;;;;;10444011;28;20773;-77
2023/01/08 16:17:00;;;;;;;0.00;0.00;;;3.60;99.90;;;;;;10445149;28;20040;-77
2023/01/08 16:22:00;;;;;;;1.00;0.93;;;3.60;99.90;;;;;;10445859;28;20025;-78
2023/01/08 16:27:01;;;;;;;0.40;0.40;;;3.60;99.90;;;;;;10445397;28;20032;-79
2023/01/08 16:32:02;;;;;;;4.70;4.30;;;3.50;99.90;;;;;;10443927;28;20472;-79
2023/01/08 16:37:02;;;;;;;1.70;1.60;;;3.50;99.90;;;;;;10445672;28;20051;-81
2023/01/08 16:42:03;;;;;;;1.70;1.60;;;3.40;99.90;;;;;;10445248;28;20029;-78
2023/01/08 16:47:04;;;;;;;1.27;1.17;;;3.50;99.90;;;;;;10444788;28;20024;-79
2023/01/08 16:52:05;;;;;;;1.77;1.67;;;3.60;99.90;;;;;;10445698;28;20435;-80
2023/01/08 16:57:05;;;;;;;4.60;4.30;;;3.50;99.90;;;;;;10445337;28;20135;-80
2023/01/08 17:02:06;;;;;;;2.60;2.47;;;3.50;99.90;;;;;;10444035;28;20029;-79
2023/01/08 17:07:06;;;;;;;8.07;5.60;;;3.60;99.90;;;;;;10444058;28;20040;-79
2023/01/08 17:12:07;;;;;;;7.40;3.63;;;3.70;99.90;;;;;;10445253;28;20025;-79
2023/01/08 17:17:07;;;;;;;4.07;3.77;;;3.80;99.90;;;;;;10443364;28;20044;-79
2023/01/08 17:22:08;;;;;;;6.70;6.10;;;3.80;99.90;;;;;;10443887;28;20035;-79
2023/01/08 17:27:10;;;;;;;4.97;3.50;;;3.80;99.90;;;;;;10443734;28;20041;-79
2023/01/08 17:32:11;;;;;;;3.07;2.87;;;3.90;99.90;;;;;;10442792;28;20055;-80
2023/01/08 17:37:12;;;;;;;0.40;0.40;;;3.80;99.90;;;;;;10443819;28;20048;-81
2023/01/08 17:42:25;;;;;;;3.00;2.80;;;3.90;99.90;;;;;;10442679;28;20060;-82
2023/01/08 17:47:26;;;;;;;2.93;2.67;;;3.90;99.90;;;;;;10442779;28;20049;-80
2023/01/08 17:52:26;;;;;;;3.40;3.10;;;4.00;99.90;;;;;;10443988;28;20111;-78
2023/01/08 17:57:30;;;;;;;1.13;1.07;;;4.00;99.90;;;;;;10443593;28;20083;-79
2023/01/08 18:02:30;;;;;;;3.47;3.10;;;4.10;99.90;;;;;;10441673;28;20036;-77
2023/01/08 18:07:34;;;;;;;1.73;1.63;;;4.10;99.90;;;;;;10441579;28;20500;-78
2023/01/08 18:12:35;;;;;;;3.33;3.07;;;4.20;99.90;;;;;;10442491;28;20033;-78
2023/01/08 18:17:35;;;;;;;1.67;1.60;;;4.30;99.90;;;;;;10440912;28;20041;-79
2023/01/08 18:22:36;;;;;;;2.20;2.10;;;4.40;99.90;;;;;;10442384;28;20120;-81
2023/01/08 18:27:36;;;;;;;2.90;2.70;;;4.50;99.90;;;;;;10442645;28;20033;-79
2023/01/08 18:32:37;;;;;;;0.40;0.40;;;4.50;99.90;;;;;;10442524;28;20555;-79
2023/01/08 18:37:37;;;;;;;4.70;4.30;;;4.50;99.90;;;;;;10441462;28;20091;-77
2023/01/08 18:42:38;;;;;;;4.70;4.17;;;4.50;99.90;;;;;;10442223;28;20060;-77
2023/01/08 18:47:38;;;;;;;9.50;2.10;;;4.50;99.90;;;;;;10441251;28;20048;-77
2023/01/08 18:52:40;;;;;;;1.60;1.53;;;4.50;99.90;;;;;;10442454;28;20489;-78
2023/01/08 18:57:43;;;;;;;3.77;3.43;;;4.50;99.90;;;;;;10450608;28;20131;-77
2023/01/08 19:02:44;;;;;;;2.40;2.30;;;4.50;99.90;;;;;;10467401;22;20061;-77
2023/01/08 19:07:44;;;;;;;1.63;1.57;;;4.40;99.90;;;;;;10449651;28;20029;-77
2023/01/08 19:12:45;;;;;;;4.47;3.73;;;4.20;99.90;;;;;;10450059;28;20094;-77
2023/01/08 19:17:45;;;;;;;0.97;0.97;;;4.10;99.90;;;;;;10461886;28;20420;-78
2023/01/08 19:22:46;;;;;;;4.30;4.00;;;3.90;99.90;;;;;;10437493;28;20036;-77
2023/01/08 19:27:46;;;;;;;5.67;5.20;;;3.80;99.90;;;;;;10443054;28;20094;-79
2023/01/08 19:32:47;;;;;;;0.73;0.73;;;3.70;99.90;;;;;;10445958;28;20037;-77
2023/01/08 19:37:48;;;;;;;0.60;0.60;;;3.60;99.90;;;;;;10466451;28;20143;-79
2023/01/08 19:48:08;;;;;;;0.37;0.30;;;3.70;99.90;;;;;;10455944;28;20040;-78
2023/01/08 19:53:09;;;;;;;2.20;2.10;;;3.80;99.90;;;;;;10448970;28;20055;-77
2023/01/08 19:58:11;;;;;;;0.17;0.17;;;3.90;99.90;;;;;;10448334;28;20651;-77
2023/01/08 20:03:11;;;;;;;4.70;2.03;;;4.00;99.90;;;;;;10445853;28;20045;-77
2023/01/08 20:08:12;;;;;;;3.07;2.87;;;4.10;99.90;;;;;;10446852;28;20593;-79
2023/01/08 20:13:12;;;;;;;0.80;0.80;;;4.10;99.90;;;;;;10453971;28;20805;-78
2023/01/08 20:18:13;;;;;;;0.80;0.80;;;4.20;99.90;;;;;;10455106;28;20119;-79
2023/01/08 20:23:13;;;;;;;1.23;1.13;;;4.20;99.90;;;;;;10435922;28;20033;-78
2023/01/08 20:28:15;;;;;;;2.30;2.20;;;4.20;99.90;;;;;;10446762;28;20052;-79
2023/01/08 20:33:15;;;;;;;0.67;0.67;;;4.30;99.90;;;;;;10450365;28;20265;-79
2023/01/08 20:38:16;;;;;;;1.60;1.40;;;4.20;99.90;;;;;;10447148;28;20037;-77
2023/01/08 20:43:16;;;;;;;1.63;1.53;;;4.30;99.90;;;;;;10446952;28;20029;-78
2023/01/08 20:48:17;;;;;;;6.53;2.30;;;4.20;99.90;;;;;;10449221;28;20511;-79
2023/01/08 20:53:18;;;;;;;0.20;0.20;;;4.30;99.90;;;;;;10452860;28;20109;-77
2023/01/08 20:58:18;;;;;;;0.87;0.87;;;4.30;99.90;;;;;;10460094;28;20071;-78
2023/01/08 21:03:19;;;;;;;0.60;0.60;;;4.30;99.90;;;;;;10446948;28;20190;-77
2023/01/08 21:08:19;;;;;;;0.33;0.33;;;4.30;99.90;;;;;;10446059;28;20378;-77
2023/01/08 21:13:20;;;;;;;4.17;2.10;;;4.40;99.90;;;;;;10455755;28;20044;-77
2023/01/08 21:18:22;;;;;;;0.70;0.70;;;4.30;99.90;;;;;;10426496;28;20102;-77
2023/01/08 21:23:22;;;;;;;0.83;0.73;;;4.40;99.90;;;;;;10449909;28;20029;-77
2023/01/08 21:28:24;;;;;;;7.80;5.93;;;4.50;99.90;;;;;;10454204;28;20044;-77
2023/01/08 21:33:24;;;;;;;3.30;1.13;;;4.50;99.90;;;;;;10449692;28;20032;-77
2023/01/08 21:38:25;;;;;;;1.60;1.50;;;4.60;99.90;;;;;;10443976;28;20037;-77
2023/01/08 21:48:48;;;;;;;0.80;0.80;;;4.60;99.90;;;;;;10448220;28;20045;-79
2023/01/08 21:53:49;;;;;;;2.33;1.40;;;4.60;99.90;;;;;;10452003;28;20684;-77
2023/01/08 21:58:49;;;;;;;0.87;0.70;;;4.60;99.90;;;;;;10442874;28;20052;-77
2023/01/08 22:03:50;;;;;;;0.20;0.20;;;4.60;99.90;;;;;;10447004;28;20499;-79
2023/01/08 22:08:52;;;;;;;0.57;0.57;;;4.60;99.90;;;;;;10443563;28;20461;-77
2023/01/08 22:13:52;;;;;;;1.50;1.40;;;4.70;99.90;;;;;;10447003;28;20111;-77
2023/01/08 22:18:53;;;;;;;1.27;1.23;;;4.70;99.90;;;;;;10438579;28;20040;-77
2023/01/08 22:23:55;;;;;;;0.40;0.40;;;4.70;99.90;;;;;;10450737;28;20033;-77
2023/01/08 22:28:55;;;;;;;2.53;2.27;;;4.70;99.90;;;;;;10440979;28;20033;-77
2023/01/08 22:33:57;;;;;;;7.70;3.73;;;4.70;99.90;;;;;;10459099;28;20036;-77
2023/01/08 22:38:58;;;;;;;7.20;3.23;;;4.70;99.90;;;;;;10442230;28;20048;-78
2023/01/08 22:43:58;;;;;;;0.87;0.87;;;4.70;99.90;;;;;;10441650;28;20472;-77
2023/01/08 22:48:59;;;;;;;1.47;1.43;;;4.70;99.90;;;;;;10442738;28;20064;-78
2023/01/08 22:53:59;;;;;;;0.60;0.60;;;4.70;99.90;;;;;;10453575;28;20747;-77
2023/01/08 22:59:00;;;;;;;0.60;0.57;;;4.70;99.90;;;;;;10441036;28;20067;-77
2023/01/08 23:04:01;;;;;;;2.10;2.00;;;4.70;99.90;;;;;;10462987;28;20108;-77
2023/01/08 23:09:02;;;;;;;1.93;1.83;;;4.70;99.90;;;;;;10440991;28;20523;-77
2023/01/08 23:14:03;;;;;;;3.23;2.97;;;4.80;99.90;;;;;;10444511;28;20037;-78
2023/01/08 23:19:03;;;;;;;1.10;1.10;;;4.80;99.90;;;;;;10441543;28;20041;-77
2023/01/08 23:24:05;;;;;;;2.80;2.60;;;4.80;99.90;;;;;;10440732;28;20072;-78
2023/01/08 23:29:06;;;;;;;2.20;2.10;;;4.80;99.90;;;;;;10440357;28;20082;-78
2023/01/08 23:34:07;;;;;;;2.43;2.33;;;4.70;99.90;;;;;;10444044;28;20033;-79
2023/01/08 23:39:08;;;;;;;0.47;0.47;;;4.70;99.90;;;;;;10440940;28;20048;-78
2023/01/08 23:44:14;;;;;;;7.50;3.23;;;4.80;99.90;;;;;;10447888;28;20075;-77
2023/01/08 23:49:14;;;;;;;6.80;2.58;;;4.70;99.90;;;;;;10448967;28;20037;-77
2023/01/08 23:54:15;;;;;;;0.87;0.87;;;4.70;99.90;;;;;;10449122;28;20033;-77
2023/01/08 23:59:16;;;;;;;7.43;2.40;;;4.70;99.90;;;;;;10463163;28;20480;-79
